Time;durP1;ratioP1;P1;durP2;ratioP2;P2;SDS_P1;SDS_P2;PMS_P1;PMS_P2;Temp;Humidity;BMP_temperature;BMP_pressure;BME280_temperature;BME280_humidity;BME280_pressure;Samples;Min_cycle;Max_cycle;Signal;HPM_P1;HPM_P2
2020/12/22 00:00:15;;;;;;;4.40;2.17;;;10.60;95.40;;;;;;5022027;28;20212;-75
2020/12/22 00:02:42;;;;;;;4.87;2.00;;;10.70;95.20;;;;;;5026816;28;20772;-74
2020/12/22 00:05:09;;;;;;;4.23;2.33;;;10.70;95.30;;;;;;5031202;28;20412;-75
2020/12/22 00:07:34;;;;;;;4.03;2.00;;;10.70;95.30;;;;;;5031322;28;20431;-74
2020/12/22 00:10:00;;;;;;;4.47;1.90;;;10.70;95.30;;;;;;5029692;28;20416;-74
2020/12/22 00:12:28;;;;;;;3.90;2.20;;;10.70;95.40;;;;;;5029412;28;20584;-75
2020/12/22 00:14:54;;;;;;;4.10;1.90;;;10.70;95.50;;;;;;5030847;28;20250;-74
2020/12/22 00:17:20;;;;;;;6.30;2.47;;;10.70;95.60;;;;;;5031492;28;20420;-74
2020/12/22 00:19:45;;;;;;;5.20;2.40;;;10.70;95.60;;;;;;5031799;28;20420;-75
2020/12/22 00:22:12;;;;;;;5.10;1.93;;;10.70;95.60;;;;;;5046744;28;20205;-75
2020/12/22 00:24:37;;;;;;;5.13;2.17;;;10.70;95.60;;;;;;5033954;28;20225;-75
2020/12/22 00:27:03;;;;;;;4.37;2.13;;;10.80;95.60;;;;;;5035835;28;20431;-74
2020/12/22 00:29:29;;;;;;;3.93;2.00;;;10.70;95.60;;;;;;5027206;28;20236;-73
2020/12/22 00:32:00;;;;;;;4.07;2.10;;;10.80;95.70;;;;;;5036821;28;20227;-74
2020/12/22 00:34:29;;;;;;;5.40;2.30;;;10.80;95.60;;;;;;5038388;28;20362;-73
2020/12/22 00:36:55;;;;;;;5.50;2.20;;;10.80;95.70;;;;;;5033196;28;20427;-73
2020/12/22 00:39:21;;;;;;;4.43;2.20;;;10.80;95.70;;;;;;5030477;28;20935;-76
2020/12/22 00:41:55;;;;;;;3.70;1.80;;;10.80;95.70;;;;;;5030454;28;20457;-73
2020/12/22 00:44:22;;;;;;;3.30;2.00;;;10.90;95.70;;;;;;5029580;28;20470;-74
2020/12/22 00:46:48;;;;;;;3.53;1.60;;;10.90;95.60;;;;;;5029010;28;20521;-74
2020/12/22 00:49:13;;;;;;;3.80;1.90;;;10.90;95.50;;;;;;5031148;28;20427;-75
2020/12/22 00:51:39;;;;;;;2.63;1.50;;;11.00;95.40;;;;;;5030772;28;20211;-75
2020/12/22 00:54:05;;;;;;;3.33;1.60;;;11.00;95.30;;;;;;5029419;28;20197;-75
2020/12/22 00:56:31;;;;;;;3.53;1.60;;;11.00;95.30;;;;;;5028293;28;20276;-75
2020/12/22 00:58:56;;;;;;;3.37;1.77;;;11.10;95.10;;;;;;5042722;28;20384;-76
2020/12/22 01:01:22;;;;;;;6.93;2.00;;;11.10;95.00;;;;;;5035013;28;20576;-76
2020/12/22 01:03:48;;;;;;;2.97;1.40;;;11.10;95.00;;;;;;5030972;28;20205;-74
2020/12/22 01:06:15;;;;;;;4.23;1.80;;;11.20;95.00;;;;;;5030428;28;20189;-75
2020/12/22 01:08:42;;;;;;;3.70;1.60;;;11.20;95.00;;;;;;5029803;28;20420;-76
2020/12/22 01:11:07;;;;;;;3.20;1.20;;;11.20;95.00;;;;;;5029540;28;20812;-75
2020/12/22 01:13:33;;;;;;;3.50;1.43;;;11.20;95.00;;;;;;5043176;28;20423;-74
2020/12/22 01:15:59;;;;;;;2.70;1.20;;;11.30;94.90;;;;;;5040370;28;20192;-75
2020/12/22 01:18:25;;;;;;;3.20;1.30;;;11.40;94.90;;;;;;5053661;28;20332;-75
2020/12/22 01:20:51;;;;;;;3.70;1.30;;;11.40;94.80;;;;;;5047697;28;20466;-75
2020/12/22 01:23:17;;;;;;;3.00;1.20;;;11.40;94.60;;;;;;5050429;28;20232;-75
2020/12/22 01:25:43;;;;;;;2.77;1.30;;;11.40;94.60;;;;;;5040333;28;20247;-74
2020/12/22 01:28:09;;;;;;;2.87;1.33;;;11.50;94.40;;;;;;5022248;28;20828;-75
2020/12/22 01:30:38;;;;;;;3.03;1.30;;;11.50;94.30;;;;;;5019153;28;20474;-73
2020/12/22 01:33:04;;;;;;;2.80;1.20;;;11.50;94.20;;;;;;5032537;28;20424;-75
2020/12/22 01:35:30;;;;;;;4.20;1.30;;;11.50;94.00;;;;;;5033170;28;20427;-75
2020/12/22 01:37:56;;;;;;;3.40;1.60;;;11.60;94.10;;;;;;5033255;28;20492;-73
2020/12/22 01:40:22;;;;;;;2.43;0.90;;;11.60;93.90;;;;;;5047171;28;20843;-73
2020/12/22 01:42:47;;;;;;;3.47;1.30;;;11.60;93.90;;;;;;5046297;28;20235;-75
2020/12/22 01:45:13;;;;;;;3.17;1.13;;;11.60;94.00;;;;;;5035954;28;20632;-75
2020/12/22 01:47:48;;;;;;;3.20;1.40;;;11.60;93.90;;;;;;5034876;28;20188;-76
2020/12/22 01:50:15;;;;;;;3.20;1.30;;;11.60;93.90;;;;;;5021619;28;20210;-76
2020/12/22 01:52:41;;;;;;;2.73;1.10;;;11.60;93.90;;;;;;5034113;28;20546;-76
2020/12/22 01:55:07;;;;;;;2.53;0.97;;;11.70;93.90;;;;;;5033639;28;20415;-74
2020/12/22 01:57:33;;;;;;;2.77;0.90;;;11.70;93.70;;;;;;5034144;28;20477;-73
2020/12/22 01:59:59;;;;;;;3.03;1.17;;;11.70;93.70;;;;;;5046809;28;20411;-75
2020/12/22 02:02:26;;;;;;;3.03;1.00;;;11.70;93.60;;;;;;5031916;28;20809;-75
2020/12/22 02:04:53;;;;;;;2.83;1.00;;;11.70;93.60;;;;;;5020687;28;20185;-75
2020/12/22 02:07:19;;;;;;;3.67;1.00;;;11.80;93.50;;;;;;5033994;28;20420;-74
2020/12/22 02:09:49;;;;;;;3.23;0.87;;;11.80;93.40;;;;;;5033749;28;20416;-74
2020/12/22 02:12:18;;;;;;;3.30;0.90;;;11.80;93.40;;;;;;5033423;28;20463;-75
2020/12/22 02:14:45;;;;;;;2.50;0.90;;;11.80;93.30;;;;;;5033438;28;20941;-75
2020/12/22 02:17:11;;;;;;;2.40;0.90;;;11.90;93.20;;;;;;5049609;28;20430;-74
2020/12/22 02:19:36;;;;;;;3.47;1.00;;;11.90;93.20;;;;;;5047655;28;20905;-74
2020/12/22 02:22:03;;;;;;;2.80;0.80;;;11.90;93.20;;;;;;5038826;28;20431;-75
2020/12/22 02:24:34;;;;;;;2.50;0.63;;;11.90;93.20;;;;;;5032877;28;20700;-75
2020/12/22 02:27:02;;;;;;;2.30;0.60;;;11.90;93.20;;;;;;5031113;28;20473;-75
2020/12/22 02:29:29;;;;;;;2.30;0.60;;;12.00;93.10;;;;;;5013920;28;20447;-74
2020/12/22 02:31:57;;;;;;;2.60;0.67;;;12.00;92.90;;;;;;5029742;28;20474;-74
2020/12/22 02:34:23;;;;;;;2.50;0.60;;;12.00;92.80;;;;;;5023763;28;21276;-74
2020/12/22 02:36:48;;;;;;;2.20;0.60;;;12.00;92.80;;;;;;5028285;28;20435;-74
2020/12/22 02:39:14;;;;;;;2.90;0.60;;;12.10;92.70;;;;;;5033383;28;20181;-74
2020/12/22 02:41:40;;;;;;;2.57;0.60;;;12.10;92.70;;;;;;5032657;28;20579;-75
2020/12/22 02:44:05;;;;;;;2.20;0.60;;;12.10;92.60;;;;;;5032732;28;20221;-74
2020/12/22 02:46:32;;;;;;;2.20;0.60;;;12.10;92.60;;;;;;5032390;28;20181;-75
2020/12/22 02:48:58;;;;;;;2.20;0.57;;;12.10;92.50;;;;;;5034026;28;20760;-74
2020/12/22 02:51:24;;;;;;;2.30;0.67;;;12.20;92.30;;;;;;5034291;28;20475;-73
2020/12/22 02:53:49;;;;;;;2.30;0.53;;;12.20;92.30;;;;;;5036626;28;20212;-73
2020/12/22 02:56:15;;;;;;;2.20;0.67;;;12.20;92.40;;;;;;5037517;28;20185;-74
2020/12/22 02:58:41;;;;;;;2.27;0.70;;;12.20;92.50;;;;;;5035547;28;20192;-73
2020/12/22 03:01:06;;;;;;;2.20;0.60;;;12.20;92.40;;;;;;5032959;28;20734;-74
2020/12/22 03:03:32;;;;;;;3.17;0.93;;;12.30;92.30;;;;;;5033068;28;20320;-74
2020/12/22 03:05:58;;;;;;;2.40;0.80;;;12.30;92.20;;;;;;5032008;28;20265;-74
2020/12/22 03:08:24;;;;;;;2.33;0.60;;;12.30;92.20;;;;;;5032300;28;20185;-74
2020/12/22 03:10:50;;;;;;;3.87;0.83;;;12.30;92.30;;;;;;5033323;28;20181;-74
2020/12/22 03:13:15;;;;;;;2.40;0.60;;;12.30;92.30;;;;;;5036624;28;20259;-74
2020/12/22 03:15:41;;;;;;;2.20;0.70;;;12.30;92.40;;;;;;5039232;28;20193;-74
2020/12/22 03:18:07;;;;;;;2.20;0.70;;;12.40;92.40;;;;;;5043281;28;20185;-73
2020/12/22 03:20:32;;;;;;;2.30;0.67;;;12.40;92.40;;;;;;5038260;28;20192;-74
2020/12/22 03:22:58;;;;;;;2.10;0.50;;;12.40;92.50;;;;;;5022233;28;20213;-74
2020/12/22 03:25:24;;;;;;;2.70;0.70;;;12.40;92.30;;;;;;5030329;28;20343;-74
2020/12/22 03:27:50;;;;;;;2.40;0.70;;;12.40;92.20;;;;;;5033005;28;20430;-75
2020/12/22 03:30:17;;;;;;;3.00;0.60;;;12.40;92.20;;;;;;5047339;28;20656;-74
2020/12/22 03:32:43;;;;;;;2.20;0.60;;;12.40;92.40;;;;;;5041225;28;20224;-74
2020/12/22 03:35:10;;;;;;;2.50;0.53;;;12.40;92.50;;;;;;5032556;28;20907;-75
2020/12/22 03:37:37;;;;;;;2.30;0.60;;;12.40;92.50;;;;;;5031284;28;20418;-74
2020/12/22 03:40:05;;;;;;;2.77;0.70;;;12.40;92.40;;;;;;5019340;28;20421;-74
2020/12/22 03:42:31;;;;;;;2.30;0.60;;;12.40;92.30;;;;;;5031316;28;21071;-75
2020/12/22 03:44:57;;;;;;;2.20;0.60;;;12.40;92.60;;;;;;5039221;28;20423;-75
2020/12/22 03:47:24;;;;;;;3.53;0.80;;;12.40;92.60;;;;;;5033402;28;20823;-74
2020/12/22 03:49:49;;;;;;;2.50;0.70;;;12.40;92.50;;;;;;5044307;28;20651;-74
2020/12/22 03:52:15;;;;;;;2.77;0.70;;;12.40;92.60;;;;;;5030203;28;20542;-74
2020/12/22 03:54:41;;;;;;;2.10;0.50;;;12.40;92.40;;;;;;5018407;28;20463;-74
2020/12/22 03:57:07;;;;;;;2.30;0.60;;;12.50;92.20;;;;;;5030764;28;20424;-73
2020/12/22 03:59:34;;;;;;;2.40;0.70;;;12.50;92.20;;;;;;5013429;28;20223;-74
2020/12/22 04:02:03;;;;;;;2.30;0.50;;;12.50;92.20;;;;;;5008862;28;20819;-76
2020/12/22 04:04:29;;;;;;;2.30;0.57;;;12.40;92.30;;;;;;5013376;28;20478;-74
2020/12/22 04:06:55;;;;;;;2.30;0.50;;;12.50;92.20;;;;;;5029262;28;20416;-73
2020/12/22 04:09:22;;;;;;;4.87;0.80;;;12.50;92.20;;;;;;5028599;28;20516;-74
2020/12/22 04:11:49;;;;;;;2.30;0.50;;;12.50;92.20;;;;;;5028263;28;21226;-73
2020/12/22 04:14:16;;;;;;;3.50;0.57;;;12.50;92.30;;;;;;5029584;28;20503;-73
2020/12/22 04:16:42;;;;;;;2.20;0.50;;;12.50;92.20;;;;;;5030419;28;20438;-73
2020/12/22 04:19:08;;;;;;;2.30;0.60;;;12.50;92.20;;;;;;5031867;28;20444;-73
2020/12/22 04:21:35;;;;;;;2.20;0.50;;;12.50;92.30;;;;;;5038528;28;20442;-73
2020/12/22 04:24:00;;;;;;;2.43;0.60;;;12.50;92.40;;;;;;5036980;28;20459;-74
2020/12/22 04:26:27;;;;;;;2.40;0.50;;;12.50;92.40;;;;;;5034762;28;20516;-73
2020/12/22 04:28:53;;;;;;;2.40;0.70;;;12.50;92.40;;;;;;5036651;28;20185;-72
2020/12/22 04:31:22;;;;;;;2.30;0.60;;;12.50;92.30;;;;;;5035175;28;20436;-73
2020/12/22 04:33:52;;;;;;;2.20;0.50;;;12.50;92.40;;;;;;5035730;28;20973;-72
2020/12/22 04:36:18;;;;;;;2.23;0.53;;;12.50;92.50;;;;;;5038396;28;20439;-73
2020/12/22 04:38:44;;;;;;;4.23;0.80;;;12.50;92.50;;;;;;5025594;28;20420;-73
2020/12/22 04:41:14;;;;;;;2.30;0.60;;;12.60;92.60;;;;;;5029297;28;20458;-72
2020/12/22 04:43:41;;;;;;;2.20;0.50;;;12.50;92.60;;;;;;5029293;28;20221;-73
2020/12/22 04:46:07;;;;;;;2.93;0.50;;;12.50;92.70;;;;;;5028188;28;21055;-75
2020/12/22 04:48:37;;;;;;;3.30;0.67;;;12.50;92.70;;;;;;5029504;28;20510;-74
2020/12/22 04:51:11;;;;;;;2.30;0.50;;;12.50;92.80;;;;;;5034382;28;20439;-74
2020/12/22 04:53:37;;;;;;;2.30;0.50;;;12.60;92.80;;;;;;5040129;28;20428;-76
2020/12/22 04:56:06;;;;;;;2.30;0.50;;;12.60;92.90;;;;;;5036118;28;20985;-73
2020/12/22 04:58:32;;;;;;;2.30;0.50;;;12.50;93.00;;;;;;5028420;28;20458;-73
2020/12/22 05:00:59;;;;;;;2.00;0.47;;;12.60;93.20;;;;;;5044383;28;20435;-73
2020/12/22 05:03:25;;;;;;;2.30;0.50;;;12.60;93.20;;;;;;5037367;28;20451;-72
2020/12/22 05:05:52;;;;;;;2.00;0.50;;;12.50;93.30;;;;;;5029657;28;20432;-73
2020/12/22 05:08:19;;;;;;;2.20;0.50;;;12.50;93.40;;;;;;5031579;28;20420;-74
2020/12/22 05:10:47;;;;;;;4.00;0.50;;;12.60;93.40;;;;;;5031564;28;20432;-74
2020/12/22 05:13:13;;;;;;;2.10;0.50;;;12.50;93.40;;;;;;5023275;28;20498;-73
2020/12/22 05:15:43;;;;;;;2.00;0.50;;;12.50;93.40;;;;;;5011722;28;20425;-74
2020/12/22 05:18:10;;;;;;;2.30;0.57;;;12.50;93.40;;;;;;5011849;28;20506;-74
2020/12/22 05:20:47;;;;;;;2.80;0.50;;;12.50;93.50;;;;;;5011594;28;20482;-73
2020/12/22 05:23:15;;;;;;;3.17;0.50;;;12.50;93.50;;;;;;5011513;28;20558;-74
2020/12/22 05:25:42;;;;;;;2.00;0.50;;;12.50;93.50;;;;;;5014788;28;20438;-74
2020/12/22 05:28:08;;;;;;;2.30;0.57;;;12.50;93.50;;;;;;5020390;28;20432;-75
2020/12/22 05:30:37;;;;;;;2.67;0.60;;;12.60;93.50;;;;;;5012767;28;20579;-74
2020/12/22 05:33:03;;;;;;;2.10;0.50;;;12.60;93.40;;;;;;5025310;28;20513;-74
2020/12/22 05:35:37;;;;;;;2.00;0.50;;;12.60;93.20;;;;;;5030368;28;20436;-73
2020/12/22 05:38:05;;;;;;;2.10;0.50;;;12.60;93.00;;;;;;5020214;28;20831;-74
2020/12/22 05:40:31;;;;;;;2.20;0.53;;;12.60;93.00;;;;;;5012926;28;20421;-74
2020/12/22 05:42:58;;;;;;;2.10;0.40;;;12.70;92.90;;;;;;5029275;28;20956;-73
2020/12/22 05:45:25;;;;;;;2.30;0.57;;;12.70;92.80;;;;;;5012211;28;20434;-74
2020/12/22 05:47:54;;;;;;;2.30;0.63;;;12.70;92.80;;;;;;5011046;28;20425;-74
2020/12/22 05:50:21;;;;;;;2.53;0.63;;;12.70;92.90;;;;;;5013226;28;20808;-74
2020/12/22 05:52:52;;;;;;;2.50;0.60;;;12.70;92.80;;;;;;5010816;28;20448;-74
2020/12/22 05:55:29;;;;;;;2.53;0.77;;;12.70;92.80;;;;;;5018674;28;20434;-74
2020/12/22 05:58:12;;;;;;;2.20;0.50;;;12.70;92.70;;;;;;5032079;28;20420;-73
2020/12/22 06:00:44;;;;;;;2.40;0.60;;;12.80;92.60;;;;;;5031394;28;20519;-74
2020/12/22 06:03:15;;;;;;;2.20;0.50;;;12.80;92.60;;;;;;5031639;28;20553;-73
2020/12/22 06:05:45;;;;;;;2.30;0.60;;;12.80;92.70;;;;;;5030644;28;20423;-74
2020/12/22 06:08:12;;;;;;;2.20;0.60;;;12.80;92.70;;;;;;5024342;28;20436;-73
2020/12/22 06:10:39;;;;;;;3.23;0.80;;;12.80;92.70;;;;;;5012298;28;20431;-74
2020/12/22 06:13:07;;;;;;;2.40;0.60;;;12.90;92.60;;;;;;5025536;28;20434;-73
2020/12/22 06:15:33;;;;;;;2.40;0.60;;;12.90;92.50;;;;;;5010927;28;20512;-75
2020/12/22 06:18:03;;;;;;;2.20;0.50;;;12.90;92.60;;;;;;5011484;28;20428;-72
2020/12/22 06:20:30;;;;;;;2.10;0.50;;;12.90;92.60;;;;;;5012983;28;21142;-74
2020/12/22 06:23:07;;;;;;;2.30;0.60;;;12.90;92.50;;;;;;5011186;28;20525;-74
2020/12/22 06:25:36;;;;;;;3.70;0.70;;;13.00;92.40;;;;;;5011413;28;20424;-75
2020/12/22 06:28:14;;;;;;;2.43;0.60;;;13.00;92.40;;;;;;5012673;28;20413;-73
2020/12/22 06:30:39;;;;;;;2.20;0.60;;;13.00;92.50;;;;;;5025235;28;20443;-74
2020/12/22 06:33:25;;;;;;;3.47;0.50;;;13.00;92.30;;;;;;5040081;28;20428;-74
2020/12/22 06:36:00;;;;;;;2.33;0.77;;;13.00;92.30;;;;;;5019314;28;20193;-73
2020/12/22 06:39:01;;;;;;;2.37;0.70;;;13.00;92.50;;;;;;5031925;28;20541;-74
2020/12/22 06:41:33;;;;;;;2.30;0.70;;;13.00;92.60;;;;;;5021538;28;20454;-73
2020/12/22 06:44:13;;;;;;;3.30;0.70;;;13.00;92.60;;;;;;5031226;28;20478;-74
2020/12/22 06:46:40;;;;;;;4.10;0.70;;;13.00;92.70;;;;;;5016265;28;20428;-73
2020/12/22 06:49:07;;;;;;;3.57;0.60;;;13.00;92.70;;;;;;5031865;28;20458;-73
2020/12/22 06:51:35;;;;;;;2.20;0.60;;;13.00;92.60;;;;;;5030024;28;20481;-73
2020/12/22 06:54:26;;;;;;;3.93;0.70;;;13.00;92.70;;;;;;5030958;28;20435;-74
2020/12/22 06:56:54;;;;;;;2.40;0.60;;;13.00;92.50;;;;;;5052085;28;20460;-74
2020/12/22 06:59:45;;;;;;;2.20;0.50;;;13.00;92.50;;;;;;5031736;28;20424;-74
2020/12/22 07:02:46;;;;;;;2.80;0.80;;;13.00;92.50;;;;;;5030012;28;20450;-73
2020/12/22 07:05:42;;;;;;;2.20;0.50;;;13.10;92.30;;;;;;4978459;28;20500;-73
2020/12/22 07:08:08;;;;;;;2.30;0.60;;;13.10;92.20;;;;;;4969989;28;20472;-75
2020/12/22 07:10:45;;;;;;;2.30;0.70;;;13.10;92.10;;;;;;4985632;28;20989;-74
2020/12/22 07:13:12;;;;;;;22.97;2.73;;;13.10;92.10;;;;;;4969217;28;20488;-74
2020/12/22 07:15:43;;;;;;;2.50;0.70;;;13.10;92.00;;;;;;4955431;28;20453;-76
2020/12/22 07:18:23;;;;;;;2.53;0.70;;;13.10;92.00;;;;;;4979211;28;20427;-74
2020/12/22 07:20:50;;;;;;;2.90;0.77;;;13.20;91.80;;;;;;4969872;28;20462;-75
2020/12/22 07:23:16;;;;;;;3.50;0.90;;;13.20;91.70;;;;;;4968851;28;21311;-74
2020/12/22 07:25:43;;;;;;;2.50;0.70;;;13.20;91.60;;;;;;4984925;28;20431;-74
2020/12/22 07:28:10;;;;;;;2.33;0.60;;;13.30;91.50;;;;;;4969223;28;20187;-73
2020/12/22 07:30:37;;;;;;;2.93;0.70;;;13.30;91.40;;;;;;4981672;28;20426;-74
2020/12/22 07:33:04;;;;;;;2.40;0.60;;;13.30;91.20;;;;;;4980090;28;20445;-72
2020/12/22 07:35:31;;;;;;;2.40;0.80;;;13.30;91.10;;;;;;4982453;28;20438;-72
2020/12/22 07:38:10;;;;;;;3.20;0.70;;;13.40;90.70;;;;;;4968542;28;20434;-73
2020/12/22 07:40:40;;;;;;;2.77;0.80;;;13.50;90.60;;;;;;5018484;28;20507;-72
2020/12/22 07:43:08;;;;;;;2.50;0.60;;;13.50;90.50;;;;;;5028589;28;21012;-73
2020/12/22 07:45:34;;;;;;;4.67;0.90;;;13.60;90.30;;;;;;5010948;28;20417;-71
2020/12/22 07:48:03;;;;;;;3.07;1.07;;;13.50;90.30;;;;;;5027024;28;20416;-74
2020/12/22 07:50:29;;;;;;;2.50;0.70;;;13.60;90.20;;;;;;5033588;28;20497;-74
2020/12/22 07:52:59;;;;;;;2.97;1.00;;;13.60;90.00;;;;;;5029074;28;20452;-72
2020/12/22 07:55:25;;;;;;;2.40;0.80;;;13.60;90.00;;;;;;5023074;28;20186;-74
2020/12/22 07:57:52;;;;;;;2.43;0.70;;;13.60;90.00;;;;;;5030245;28;20871;-73
2020/12/22 08:00:17;;;;;;;2.80;0.77;;;13.70;89.60;;;;;;5032838;28;20419;-74
2020/12/22 08:02:43;;;;;;;2.20;0.60;;;13.70;89.50;;;;;;5030479;28;20452;-74
2020/12/22 08:05:14;;;;;;;2.97;0.70;;;13.70;89.30;;;;;;5035734;28;20184;-74
2020/12/22 08:07:42;;;;;;;2.30;0.70;;;13.80;89.20;;;;;;5046304;28;20181;-73
2020/12/22 08:10:17;;;;;;;2.63;0.70;;;13.80;89.20;;;;;;5021422;28;20563;-73
2020/12/22 08:12:45;;;;;;;2.30;0.70;;;13.80;89.00;;;;;;5014064;28;20447;-73
2020/12/22 08:15:11;;;;;;;2.70;0.70;;;13.80;89.20;;;;;;5025777;28;20427;-74
2020/12/22 08:17:43;;;;;;;2.30;0.60;;;13.70;89.30;;;;;;5029531;28;20427;-72
2020/12/22 08:20:09;;;;;;;3.40;0.70;;;13.70;89.30;;;;;;5016279;28;20620;-73
2020/12/22 08:22:36;;;;;;;2.20;0.60;;;13.80;89.20;;;;;;5028783;28;20463;-72
2020/12/22 08:25:03;;;;;;;3.00;0.60;;;13.80;89.20;;;;;;5029418;28;20883;-74
2020/12/22 08:27:30;;;;;;;2.30;0.60;;;13.80;89.20;;;;;;5022390;28;20424;-74
2020/12/22 08:29:56;;;;;;;2.70;0.70;;;13.80;89.20;;;;;;5022286;28;20521;-74
2020/12/22 08:32:26;;;;;;;4.10;0.60;;;13.80;89.30;;;;;;5028943;28;20467;-73
2020/12/22 08:34:53;;;;;;;2.20;0.70;;;13.80;89.30;;;;;;5028534;28;20419;-74
2020/12/22 08:37:26;;;;;;;2.20;0.60;;;13.80;89.30;;;;;;5021363;28;20835;-73
2020/12/22 08:39:53;;;;;;;2.20;0.60;;;13.70;89.70;;;;;;5009905;28;21005;-72
2020/12/22 08:42:21;;;;;;;2.60;0.67;;;13.70;89.90;;;;;;5022280;28;20454;-74
2020/12/22 08:44:51;;;;;;;2.23;0.60;;;13.70;89.70;;;;;;5013927;28;20479;-74
2020/12/22 08:47:19;;;;;;;2.33;0.70;;;13.80;89.70;;;;;;5009422;28;20466;-73
2020/12/22 08:49:48;;;;;;;2.90;0.80;;;13.80;89.50;;;;;;5010282;28;20853;-74
2020/12/22 08:52:17;;;;;;;2.20;0.50;;;13.80;89.60;;;;;;5018990;28;20452;-74
2020/12/22 08:54:47;;;;;;;2.17;0.50;;;13.80;89.30;;;;;;5012469;28;20440;-74
2020/12/22 08:57:15;;;;;;;2.30;0.60;;;13.80;89.30;;;;;;5025809;28;20961;-73
2020/12/22 08:59:42;;;;;;;2.50;0.80;;;13.90;89.20;;;;;;5029009;28;20865;-74
2020/12/22 09:02:30;;;;;;;3.37;1.40;;;13.90;89.20;;;;;;5029159;28;20444;-74
2020/12/22 09:04:56;;;;;;;2.47;0.70;;;13.90;89.20;;;;;;5028543;28;20541;-74
2020/12/22 09:07:26;;;;;;;2.83;0.63;;;14.00;89.30;;;;;;5028498;28;20959;-73
2020/12/22 09:09:53;;;;;;;2.70;0.70;;;14.00;90.00;;;;;;5029000;28;20798;-75
2020/12/22 09:12:18;;;;;;;2.70;0.70;;;13.80;90.40;;;;;;5028677;28;20443;-73
2020/12/22 09:14:48;;;;;;;3.07;0.83;;;13.80;90.50;;;;;;5028733;28;20948;-72
2020/12/22 09:17:31;;;;;;;2.87;0.70;;;13.80;90.50;;;;;;5013136;28;20991;-73
2020/12/22 09:19:57;;;;;;;3.27;1.00;;;13.80;90.70;;;;;;5009127;28;20429;-73
2020/12/22 09:22:24;;;;;;;2.60;0.77;;;13.80;90.90;;;;;;5010868;28;20978;-74
2020/12/22 09:25:00;;;;;;;2.50;0.73;;;13.70;91.20;;;;;;5017945;28;20498;-74
2020/12/22 09:27:33;;;;;;;2.40;0.60;;;13.70;91.30;;;;;;5010999;28;20535;-73
2020/12/22 09:30:00;;;;;;;2.77;0.67;;;13.70;91.30;;;;;;5010255;28;20539;-72
2020/12/22 09:32:27;;;;;;;2.30;0.70;;;13.70;91.40;;;;;;5012830;28;20444;-73
2020/12/22 09:34:52;;;;;;;3.13;0.60;;;13.70;91.50;;;;;;5029035;28;21016;-73
2020/12/22 09:37:22;;;;;;;2.33;0.63;;;13.60;92.40;;;;;;5021265;28;20528;-73
2020/12/22 09:39:50;;;;;;;2.60;0.73;;;13.50;92.80;;;;;;5022203;28;20264;-74
2020/12/22 09:42:16;;;;;;;2.97;0.90;;;13.40;93.30;;;;;;5025020;28;20443;-73
2020/12/22 09:44:43;;;;;;;2.97;0.70;;;13.30;93.40;;;;;;5021248;28;20476;-72
2020/12/22 09:47:09;;;;;;;3.77;1.13;;;13.40;93.50;;;;;;5010642;28;20778;-74
2020/12/22 09:49:35;;;;;;;2.60;0.80;;;13.40;93.70;;;;;;5012782;28;20417;-73
2020/12/22 09:52:02;;;;;;;2.57;0.70;;;13.30;93.90;;;;;;5023734;28;20459;-74
2020/12/22 09:54:27;;;;;;;2.50;0.60;;;13.30;94.00;;;;;;5011684;28;20189;-74
2020/12/22 09:56:53;;;;;;;2.27;0.70;;;13.30;93.70;;;;;;5024402;28;20446;-74
2020/12/22 09:59:19;;;;;;;2.97;1.00;;;13.40;93.60;;;;;;5033119;28;20204;-73
2020/12/22 10:01:46;;;;;;;3.07;0.70;;;13.40;93.50;;;;;;5031987;28;20224;-72
2020/12/22 10:04:12;;;;;;;4.70;0.93;;;13.50;93.10;;;;;;5021429;28;20255;-72
2020/12/22 10:06:38;;;;;;;2.60;0.73;;;13.60;92.80;;;;;;5017016;28;20539;-75
2020/12/22 10:09:04;;;;;;;5.10;1.07;;;13.70;92.50;;;;;;5033257;28;20424;-73
2020/12/22 10:11:32;;;;;;;2.97;0.70;;;13.70;92.00;;;;;;5031668;28;20455;-74
2020/12/22 10:13:58;;;;;;;2.67;0.73;;;13.80;91.70;;;;;;5032972;28;20511;-74
2020/12/22 10:16:24;;;;;;;3.00;0.90;;;13.80;91.60;;;;;;5019387;28;20523;-75
2020/12/22 10:18:50;;;;;;;2.30;0.60;;;13.90;91.20;;;;;;5020680;28;20571;-75
2020/12/22 10:21:19;;;;;;;2.20;0.60;;;13.90;91.10;;;;;;5017159;28;20944;-73
2020/12/22 10:23:48;;;;;;;2.57;0.60;;;14.00;90.90;;;;;;5022098;28;20606;-75
2020/12/22 10:26:17;;;;;;;2.63;0.70;;;14.00;90.60;;;;;;5018290;28;20450;-75
2020/12/22 10:28:44;;;;;;;2.20;0.60;;;14.10;90.60;;;;;;5023712;28;20475;-75
2020/12/22 10:31:17;;;;;;;4.60;0.80;;;14.10;90.40;;;;;;5023923;28;20468;-74
2020/12/22 10:33:44;;;;;;;3.43;0.90;;;14.20;90.00;;;;;;5035346;28;20432;-74
2020/12/22 10:36:17;;;;;;;3.50;0.83;;;14.20;89.50;;;;;;5035306;28;20420;-74
2020/12/22 10:38:43;;;;;;;2.70;0.70;;;14.20;89.50;;;;;;5035836;28;20923;-73
2020/12/22 10:41:09;;;;;;;3.43;1.30;;;14.30;89.20;;;;;;5034806;28;20478;-75
2020/12/22 10:43:35;;;;;;;2.53;0.80;;;14.40;88.60;;;;;;5033971;28;20213;-74
2020/12/22 10:46:01;;;;;;;2.70;0.80;;;14.40;88.60;;;;;;5025242;28;20419;-75
2020/12/22 10:48:27;;;;;;;2.70;0.70;;;14.40;88.30;;;;;;5032802;28;20459;-75
2020/12/22 10:50:54;;;;;;;2.43;0.70;;;14.40;88.00;;;;;;5014524;28;20916;-75
2020/12/22 10:53:20;;;;;;;2.60;0.70;;;14.40;87.70;;;;;;5029695;28;20438;-73
2020/12/22 10:55:46;;;;;;;2.80;0.80;;;14.40;88.00;;;;;;5023549;28;20432;-75
2020/12/22 10:58:13;;;;;;;2.50;0.70;;;14.40;88.00;;;;;;5025715;28;20417;-73
2020/12/22 11:00:39;;;;;;;2.37;0.60;;;14.50;88.10;;;;;;5022029;28;20416;-72
2020/12/22 11:03:07;;;;;;;2.50;0.60;;;14.40;88.10;;;;;;5021204;28;20544;-73
2020/12/22 11:08:19;;;;;;;2.47;0.70;;;14.40;88.10;;;;;;5033668;28;20434;-74
2020/12/22 11:10:45;;;;;;;2.40;0.50;;;14.40;88.10;;;;;;5033329;28;20440;-74
2020/12/22 11:13:11;;;;;;;3.50;1.50;;;14.40;88.10;;;;;;5034587;28;20454;-74
2020/12/22 11:15:37;;;;;;;2.40;0.70;;;14.40;88.40;;;;;;5030550;28;20208;-73
2020/12/22 11:18:03;;;;;;;2.30;0.67;;;14.50;88.30;;;;;;5029007;28;20227;-72
2020/12/22 11:20:29;;;;;;;3.60;0.80;;;14.40;88.40;;;;;;5028616;28;20529;-74
2020/12/22 11:22:55;;;;;;;2.50;0.80;;;14.40;88.60;;;;;;5029728;28;20212;-74
2020/12/22 11:25:20;;;;;;;2.50;0.97;;;14.40;88.40;;;;;;5029915;28;20609;-73
2020/12/22 11:27:46;;;;;;;2.40;0.60;;;14.40;88.60;;;;;;5030593;28;20239;-74
2020/12/22 11:30:12;;;;;;;2.17;0.60;;;14.40;88.60;;;;;;5034112;28;20567;-75
2020/12/22 11:32:39;;;;;;;3.90;1.10;;;14.40;88.30;;;;;;5020566;28;20484;-75
2020/12/22 11:35:07;;;;;;;2.27;0.60;;;14.40;88.60;;;;;;5032158;28;20428;-77
2020/12/22 11:37:32;;;;;;;2.93;0.70;;;14.40;88.70;;;;;;5033958;28;20509;-75
2020/12/22 11:39:58;;;;;;;2.20;0.67;;;14.40;89.00;;;;;;5032866;28;20451;-75
2020/12/22 11:42:24;;;;;;;2.50;0.80;;;14.40;89.20;;;;;;5026097;28;20701;-75
2020/12/22 11:44:50;;;;;;;3.43;0.80;;;14.30;89.60;;;;;;5024177;28;20315;-74
2020/12/22 11:47:15;;;;;;;2.80;0.63;;;14.30;90.00;;;;;;5025864;28;20199;-75
2020/12/22 11:49:42;;;;;;;2.20;0.70;;;14.20;90.10;;;;;;5024713;28;20830;-73
2020/12/22 11:52:08;;;;;;;2.97;0.80;;;14.20;90.20;;;;;;5022325;28;20209;-74
2020/12/22 11:54:35;;;;;;;3.57;1.30;;;14.30;90.10;;;;;;5008019;28;20437;-73
2020/12/22 11:57:01;;;;;;;2.30;0.60;;;14.30;90.10;;;;;;5025160;28;20448;-74
2020/12/22 11:59:27;;;;;;;2.40;0.60;;;14.40;89.90;;;;;;5025604;28;20958;-75
2020/12/22 12:01:53;;;;;;;2.43;0.70;;;14.40;89.90;;;;;;5023281;28;20468;-74
2020/12/22 12:04:19;;;;;;;2.53;0.73;;;14.40;89.90;;;;;;5021986;28;20232;-75
2020/12/22 12:06:48;;;;;;;2.20;0.60;;;14.40;89.90;;;;;;5027459;28;20197;-74
2020/12/22 12:09:15;;;;;;;3.03;0.90;;;14.50;89.70;;;;;;5013982;28;20194;-73
2020/12/22 12:11:41;;;;;;;2.33;0.67;;;14.50;89.60;;;;;;5029863;28;20527;-74
2020/12/22 12:14:07;;;;;;;3.43;0.80;;;14.50;89.90;;;;;;5017573;28;20440;-73
2020/12/22 12:16:33;;;;;;;2.60;0.80;;;14.60;89.50;;;;;;5022211;28;20450;-74
2020/12/22 12:18:59;;;;;;;2.93;0.83;;;14.60;89.50;;;;;;5025932;28;20194;-75
2020/12/22 12:21:26;;;;;;;2.33;0.70;;;14.60;89.50;;;;;;5027314;28;20828;-73
2020/12/22 12:23:51;;;;;;;2.50;0.60;;;14.60;89.50;;;;;;5027321;28;20471;-75
2020/12/22 12:26:17;;;;;;;3.10;0.80;;;14.70;89.30;;;;;;5020466;28;20425;-74
2020/12/22 12:28:43;;;;;;;2.30;0.73;;;14.70;89.00;;;;;;5019858;28;20192;-74
2020/12/22 12:31:16;;;;;;;2.30;0.60;;;14.70;89.20;;;;;;5020232;28;20213;-73
2020/12/22 12:33:43;;;;;;;2.30;0.67;;;14.80;89.00;;;;;;5024187;28;20193;-74
2020/12/22 12:36:12;;;;;;;2.50;0.80;;;14.80;89.00;;;;;;5025156;28;20970;-74
2020/12/22 12:38:38;;;;;;;2.43;0.60;;;14.70;89.30;;;;;;5029308;28;20438;-74
2020/12/22 12:41:04;;;;;;;2.27;0.70;;;14.70;89.60;;;;;;5022988;28;20523;-74
2020/12/22 12:43:29;;;;;;;2.50;0.73;;;14.70;90.50;;;;;;5028490;28;20308;-75
2020/12/22 12:45:55;;;;;;;2.47;0.60;;;14.60;90.60;;;;;;5018551;28;20468;-74
2020/12/22 12:48:21;;;;;;;3.00;0.90;;;14.50;90.80;;;;;;5023722;28;20215;-74
2020/12/22 12:50:46;;;;;;;2.67;0.60;;;14.50;90.70;;;;;;5025480;28;20196;-74
2020/12/22 12:53:12;;;;;;;2.33;0.70;;;14.50;91.90;;;;;;5018684;28;20270;-76